Time;durP1;ratioP1;P1;durP2;ratioP2;P2;SDS_P1;SDS_P2;PMS_P1;PMS_P2;Temp;Humidity;BMP_temperature;BMP_pressure;BME280_temperature;BME280_humidity;BME280_pressure;Samples;Min_cycle;Max_cycle;Signal;HPM_P1;HPM_P2
2020/12/27 00:02:19;;;;;;;15.43;14.03;;;-2.40;99.90;;;;;;5022810;28;20458;-79
2020/12/27 00:04:45;;;;;;;14.90;13.80;;;-2.40;99.90;;;;;;5017663;28;20498;-78
2020/12/27 00:07:14;;;;;;;15.13;13.83;;;-2.40;99.90;;;;;;5003226;28;20459;-78
2020/12/27 00:09:42;;;;;;;15.40;14.10;;;-2.50;99.90;;;;;;4998691;28;20475;-78
2020/12/27 00:12:09;;;;;;;13.97;12.87;;;-2.50;99.90;;;;;;5001702;28;20489;-78
2020/12/27 00:14:36;;;;;;;14.70;13.57;;;-2.50;99.90;;;;;;5015878;28;20494;-78
2020/12/27 00:17:03;;;;;;;14.80;13.60;;;-2.40;99.90;;;;;;5000958;28;20446;-78
2020/12/27 00:19:30;;;;;;;15.40;14.10;;;-2.40;99.90;;;;;;5022541;28;20459;-78
2020/12/27 00:21:56;;;;;;;14.00;12.90;;;-2.40;99.90;;;;;;5017405;28;20471;-78
2020/12/27 00:24:23;;;;;;;15.43;14.13;;;-2.40;99.90;;;;;;5003000;28;20515;-78
2020/12/27 00:26:50;;;;;;;15.40;13.90;;;-2.40;99.90;;;;;;5013939;28;20430;-78
2020/12/27 00:29:16;;;;;;;14.60;13.50;;;-2.40;99.90;;;;;;5018667;28;20988;-78
2020/12/27 00:31:42;;;;;;;15.20;13.90;;;-2.40;99.90;;;;;;5003556;28;20874;-78
2020/12/27 00:34:09;;;;;;;15.60;14.23;;;-2.40;99.90;;;;;;5017824;28;20902;-78
2020/12/27 00:36:35;;;;;;;15.93;14.53;;;-2.40;99.90;;;;;;4991318;28;20444;-78
2020/12/27 00:39:05;;;;;;;15.57;14.20;;;-2.30;99.90;;;;;;5016336;28;20471;-78
2020/12/27 00:41:33;;;;;;;20.07;15.20;;;-2.40;99.90;;;;;;5017495;28;20565;-76
2020/12/27 00:44:00;;;;;;;16.43;14.93;;;-2.40;99.90;;;;;;5014607;28;20464;-77
2020/12/27 00:46:27;;;;;;;16.77;15.10;;;-2.40;99.90;;;;;;5020590;28;20446;-76
2020/12/27 00:48:53;;;;;;;16.60;15.00;;;-2.40;99.90;;;;;;5000597;28;20460;-77
2020/12/27 00:51:20;;;;;;;16.13;14.63;;;-2.40;99.90;;;;;;4998418;28;20506;-76
2020/12/27 00:53:47;;;;;;;15.57;14.40;;;-2.40;99.90;;;;;;5001043;28;20451;-77
2020/12/27 00:56:13;;;;;;;16.40;15.00;;;-2.40;99.90;;;;;;5015510;28;20451;-76
2020/12/27 00:58:54;;;;;;;16.63;15.13;;;-2.40;99.90;;;;;;4996925;28;20947;-76
2020/12/27 01:01:20;;;;;;;16.17;14.77;;;-2.50;99.90;;;;;;4997836;28;20448;-77
2020/12/27 01:03:46;;;;;;;15.37;14.23;;;-2.50;99.90;;;;;;5004344;28;20532;-77
2020/12/27 01:06:22;;;;;;;15.80;14.47;;;-2.50;99.90;;;;;;4997321;28;20496;-77
2020/12/27 01:08:49;;;;;;;16.83;15.33;;;-2.50;99.90;;;;;;4999354;28;20527;-76
2020/12/27 01:11:15;;;;;;;16.57;15.03;;;-2.50;99.90;;;;;;4996007;28;20455;-76
2020/12/27 01:13:42;;;;;;;16.53;14.93;;;-2.60;99.90;;;;;;5018036;28;20843;-77
2020/12/27 01:16:11;;;;;;;16.20;14.67;;;-2.60;99.90;;;;;;4996943;28;21026;-77
2020/12/27 01:18:38;;;;;;;16.80;15.20;;;-2.60;99.90;;;;;;4999773;28;20446;-77
2020/12/27 01:21:04;;;;;;;16.93;15.23;;;-2.70;99.90;;;;;;4994379;28;20451;-77
2020/12/27 01:23:30;;;;;;;16.10;14.60;;;-2.80;99.90;;;;;;4997748;28;20868;-77
2020/12/27 01:25:57;;;;;;;16.93;15.53;;;-2.80;99.90;;;;;;4998806;28;20465;-76
2020/12/27 01:28:24;;;;;;;16.10;14.80;;;-2.70;99.90;;;;;;4999918;28;20499;-76
2020/12/27 01:30:56;;;;;;;15.40;13.97;;;-2.70;99.90;;;;;;5000743;28;20472;-76
2020/12/27 01:33:33;;;;;;;16.20;14.57;;;-2.70;99.90;;;;;;4997849;28;20482;-76
2020/12/27 01:36:01;;;;;;;15.67;14.37;;;-2.70;99.90;;;;;;4997925;28;20487;-76
2020/12/27 01:38:29;;;;;;;15.90;14.60;;;-2.70;99.90;;;;;;5000786;28;20896;-77
2020/12/27 01:41:03;;;;;;;15.27;14.00;;;-2.70;99.90;;;;;;5002381;28;20448;-77
2020/12/27 01:43:34;;;;;;;16.10;14.40;;;-2.60;99.90;;;;;;4998918;28;20682;-76
2020/12/27 01:46:03;;;;;;;15.10;13.87;;;-2.60;99.90;;;;;;5002839;28;20632;-76
2020/12/27 01:48:31;;;;;;;16.97;14.93;;;-2.60;99.90;;;;;;5003819;28;20490;-76
2020/12/27 01:51:03;;;;;;;15.27;13.87;;;-2.60;99.90;;;;;;4997678;28;20970;-76
2020/12/27 01:53:38;;;;;;;15.50;14.23;;;-2.70;99.90;;;;;;4994675;28;20457;-76
2020/12/27 01:56:12;;;;;;;15.70;14.23;;;-2.70;99.90;;;;;;5002536;28;20466;-76
2020/12/27 01:58:42;;;;;;;15.47;13.97;;;-2.70;99.90;;;;;;5000850;28;20992;-77
2020/12/27 02:01:14;;;;;;;15.20;13.83;;;-2.70;99.90;;;;;;4999182;28;21166;-76
2020/12/27 02:03:57;;;;;;;15.50;14.03;;;-2.70;99.90;;;;;;5001011;28;20457;-77
2020/12/27 02:06:39;;;;;;;14.57;13.47;;;-2.70;99.90;;;;;;4990086;28;20455;-76
2020/12/27 02:09:13;;;;;;;15.73;14.33;;;-2.70;99.90;;;;;;4997069;28;20481;-77
2020/12/27 02:12:02;;;;;;;15.70;14.30;;;-2.70;99.90;;;;;;4992150;28;20446;-77
2020/12/27 02:14:29;;;;;;;16.10;14.60;;;-2.70;99.90;;;;;;5002938;28;20495;-76
2020/12/27 02:16:56;;;;;;;16.80;15.37;;;-2.80;99.90;;;;;;5000028;28;20473;-76
2020/12/27 02:19:42;;;;;;;16.77;15.20;;;-2.70;99.90;;;;;;5025611;28;20539;-77
2020/12/27 02:22:25;;;;;;;16.40;15.07;;;-2.70;99.90;;;;;;5003261;28;20550;-77
2020/12/27 02:25:10;;;;;;;16.87;15.30;;;-2.60;99.90;;;;;;5022085;28;20899;-77
2020/12/27 02:27:40;;;;;;;16.03;14.63;;;-2.60;99.90;;;;;;5000896;28;20808;-76
2020/12/27 02:30:07;;;;;;;16.50;15.10;;;-2.50;99.90;;;;;;5001563;28;20476;-77
2020/12/27 02:32:34;;;;;;;16.30;14.80;;;-2.50;99.90;;;;;;5003569;28;20996;-76
2020/12/27 02:35:00;;;;;;;14.67;13.47;;;-2.50;99.90;;;;;;5014304;28;20473;-76
2020/12/27 02:37:27;;;;;;;15.03;13.87;;;-2.40;99.90;;;;;;5018894;28;20431;-77
2020/12/27 02:40:02;;;;;;;14.20;13.17;;;-2.30;99.90;;;;;;5002413;28;20501;-76
2020/12/27 02:42:48;;;;;;;13.77;12.77;;;-2.30;99.90;;;;;;4996207;28;20956;-76
2020/12/27 02:45:15;;;;;;;15.00;13.70;;;-2.30;99.90;;;;;;5001291;28;20470;-77
2020/12/27 02:48:01;;;;;;;15.43;14.23;;;-2.30;99.90;;;;;;5018687;28;20805;-76
2020/12/27 02:50:36;;;;;;;14.30;13.30;;;-2.20;99.90;;;;;;4992122;28;20477;-76
2020/12/27 02:53:04;;;;;;;15.70;14.40;;;-2.20;99.90;;;;;;4998606;28;20443;-77
2020/12/27 02:55:32;;;;;;;14.57;13.43;;;-2.20;99.90;;;;;;5003653;28;20482;-77
2020/12/27 02:57:59;;;;;;;15.10;13.83;;;-2.10;99.90;;;;;;4988805;28;20451;-76
2020/12/27 03:00:29;;;;;;;15.63;14.13;;;-2.10;99.90;;;;;;5012832;28;20848;-76
2020/12/27 03:03:14;;;;;;;14.47;13.37;;;-2.10;99.90;;;;;;5017862;28;20458;-76
2020/12/27 03:05:47;;;;;;;14.00;12.97;;;-2.10;99.90;;;;;;5003418;28;20478;-76
2020/12/27 03:08:14;;;;;;;14.03;12.93;;;-2.00;99.90;;;;;;5003481;28;20974;-76
2020/12/27 03:10:59;;;;;;;14.40;13.40;;;-2.00;99.90;;;;;;5017254;28;20506;-76
2020/12/27 03:13:27;;;;;;;14.40;13.30;;;-1.90;99.90;;;;;;4997274;28;20456;-77
2020/12/27 03:15:54;;;;;;;13.97;12.77;;;-1.80;99.90;;;;;;5000545;28;21011;-76
2020/12/27 03:18:50;;;;;;;14.40;13.10;;;-1.80;99.90;;;;;;4990693;28;20478;-76
2020/12/27 03:21:36;;;;;;;14.50;13.30;;;-1.80;99.90;;;;;;4998914;28;20442;-77
2020/12/27 03:24:08;;;;;;;14.27;13.27;;;-1.70;99.90;;;;;;5000747;28;20453;-77
2020/12/27 03:26:36;;;;;;;14.70;13.53;;;-1.70;99.90;;;;;;5003888;28;20975;-77
2020/12/27 03:29:04;;;;;;;15.47;14.23;;;-1.60;99.90;;;;;;4998511;28;20480;-77
2020/12/27 03:31:31;;;;;;;14.67;13.50;;;-1.60;99.90;;;;;;5000624;28;20475;-76
2020/12/27 03:34:05;;;;;;;14.53;13.43;;;-1.60;99.90;;;;;;4995209;28;20513;-77
2020/12/27 03:36:31;;;;;;;14.13;13.13;;;-1.60;99.90;;;;;;5016424;28;20910;-77
2020/12/27 03:39:06;;;;;;;14.77;13.60;;;-1.60;99.90;;;;;;5002061;28;20448;-76
2020/12/27 03:41:35;;;;;;;14.90;13.60;;;-1.50;99.90;;;;;;5008278;28;20526;-76
2020/12/27 03:44:11;;;;;;;14.87;13.77;;;-1.50;99.90;;;;;;4996917;28;20815;-77
2020/12/27 03:46:56;;;;;;;15.17;13.87;;;-1.60;99.90;;;;;;5020131;28;20431;-75
2020/12/27 03:49:38;;;;;;;14.60;13.50;;;-1.60;99.90;;;;;;5001877;28;20470;-75
2020/12/27 03:52:19;;;;;;;15.90;14.60;;;-1.60;99.90;;;;;;4996927;28;20550;-75
2020/12/27 03:55:05;;;;;;;15.73;14.50;;;-1.50;99.90;;;;;;5014257;28;20457;-75
2020/12/27 03:57:49;;;;;;;15.90;14.63;;;-1.60;99.90;;;;;;4999982;28;20462;-76
2020/12/27 04:00:29;;;;;;;15.87;14.67;;;-1.50;99.90;;;;;;4998732;28;20447;-77
2020/12/27 04:03:02;;;;;;;15.50;14.30;;;-1.60;99.90;;;;;;4996077;28;20459;-76
2020/12/27 04:05:32;;;;;;;16.50;15.10;;;-1.60;99.90;;;;;;4993073;28;20471;-75
2020/12/27 04:07:58;;;;;;;16.10;14.80;;;-1.60;99.90;;;;;;4983913;28;20451;-75
2020/12/27 04:10:25;;;;;;;16.63;15.33;;;-1.60;99.90;;;;;;4997035;28;20521;-75
2020/12/27 04:12:52;;;;;;;15.97;14.70;;;-1.60;99.90;;;;;;4994758;28;20825;-75
2020/12/27 04:15:18;;;;;;;16.67;15.37;;;-1.60;99.90;;;;;;4995354;28;20470;-76
2020/12/27 04:17:57;;;;;;;16.73;15.33;;;-1.60;99.90;;;;;;4995382;28;20593;-76
2020/12/27 04:20:29;;;;;;;16.10;14.80;;;-1.60;99.90;;;;;;4986398;28;20792;-76
2020/12/27 04:22:55;;;;;;;16.50;15.20;;;-1.60;99.90;;;;;;4998138;28;20530;-76
2020/12/27 04:25:22;;;;;;;16.93;15.53;;;-1.60;99.90;;;;;;4997173;28;20463;-77
2020/12/27 04:27:49;;;;;;;16.47;14.97;;;-1.60;99.90;;;;;;4996837;28;20527;-76
2020/12/27 04:30:16;;;;;;;17.30;15.77;;;-1.60;99.90;;;;;;4984699;28;20475;-76
2020/12/27 04:33:08;;;;;;;16.87;15.47;;;-1.60;99.90;;;;;;5001030;28;20505;-76
2020/12/27 04:35:54;;;;;;;16.97;15.47;;;-1.60;99.90;;;;;;4998719;28;20471;-76
2020/12/27 04:38:20;;;;;;;16.63;15.43;;;-1.60;99.90;;;;;;4997490;28;20944;-77
2020/12/27 04:40:47;;;;;;;17.50;15.87;;;-1.60;99.90;;;;;;4999525;28;20440;-76
2020/12/27 04:43:15;;;;;;;16.87;15.30;;;-1.60;99.90;;;;;;5011138;28;20448;-76
2020/12/27 04:45:50;;;;;;;16.53;15.03;;;-1.60;99.90;;;;;;5001144;28;20533;-76
2020/12/27 04:48:29;;;;;;;16.20;14.70;;;-1.60;99.90;;;;;;4996145;28;20459;-76
2020/12/27 04:51:03;;;;;;;16.90;15.33;;;-1.60;99.90;;;;;;5011295;28;20460;-76
2020/12/27 04:53:30;;;;;;;16.43;15.07;;;-1.60;99.90;;;;;;4993257;28;20452;-76
2020/12/27 04:56:01;;;;;;;16.83;15.43;;;-1.60;99.90;;;;;;5005330;28;20468;-76
2020/12/27 04:58:35;;;;;;;16.77;15.30;;;-1.60;99.90;;;;;;4991136;28;20951;-77
2020/12/27 05:01:10;;;;;;;17.87;16.37;;;-1.60;99.90;;;;;;4992024;28;20450;-76
2020/12/27 05:03:58;;;;;;;17.00;15.50;;;-1.60;99.90;;;;;;4977615;28;20424;-77
2020/12/27 05:06:31;;;;;;;16.83;15.20;;;-1.60;99.90;;;;;;4997204;28;20963;-76
2020/12/27 05:08:59;;;;;;;16.17;14.77;;;-1.60;99.90;;;;;;4997606;28;20447;-76
2020/12/27 05:11:28;;;;;;;17.50;15.90;;;-1.60;99.90;;;;;;4996045;28;20442;-77
2020/12/27 05:14:00;;;;;;;17.00;15.40;;;-1.60;99.90;;;;;;4993676;28;20982;-76
2020/12/27 05:16:33;;;;;;;16.83;15.43;;;-1.60;99.90;;;;;;4989278;28;20590;-75
2020/12/27 05:19:03;;;;;;;16.27;14.97;;;-1.60;99.90;;;;;;5000301;28;20447;-75
2020/12/27 05:21:37;;;;;;;16.23;14.93;;;-1.60;99.90;;;;;;5006159;28;20481;-77
2020/12/27 05:24:07;;;;;;;15.90;14.50;;;-1.60;99.90;;;;;;4999999;28;20482;-76
2020/12/27 05:26:47;;;;;;;15.97;14.57;;;-1.60;99.90;;;;;;5002338;28;20451;-75
2020/12/27 05:29:45;;;;;;;16.00;14.73;;;-1.60;99.90;;;;;;4998054;28;20478;-76
2020/12/27 05:32:30;;;;;;;16.67;15.30;;;-1.60;99.90;;;;;;5019116;28;20434;-75
2020/12/27 05:35:29;;;;;;;15.33;14.03;;;-1.60;99.90;;;;;;5023335;28;20512;-76
2020/12/27 05:38:05;;;;;;;15.60;14.30;;;-1.60;99.90;;;;;;5002885;28;20451;-76
2020/12/27 05:41:04;;;;;;;16.30;14.80;;;-1.60;99.90;;;;;;4956379;28;20434;-77
2020/12/27 05:43:37;;;;;;;15.83;14.63;;;-1.60;99.90;;;;;;5003522;28;20983;-77
2020/12/27 05:46:07;;;;;;;16.93;15.33;;;-1.60;99.90;;;;;;4997398;28;20474;-77
2020/12/27 05:48:34;;;;;;;16.73;15.23;;;-1.60;99.90;;;;;;4997408;28;20517;-77
2020/12/27 05:51:03;;;;;;;16.50;15.00;;;-1.60;99.90;;;;;;5000049;28;20470;-77
2020/12/27 05:53:34;;;;;;;16.10;14.70;;;-1.70;99.90;;;;;;4996612;28;20527;-78
2020/12/27 05:56:08;;;;;;;15.70;14.57;;;-1.70;99.90;;;;;;5002537;28;20483;-77
2020/12/27 05:58:44;;;;;;;14.80;13.60;;;-1.70;99.90;;;;;;5000222;28;20455;-77
2020/12/27 06:01:22;;;;;;;15.90;14.63;;;-1.70;99.90;;;;;;4996524;28;20531;-79
2020/12/27 06:04:00;;;;;;;14.70;13.60;;;-1.70;99.90;;;;;;4999815;28;20444;-78
2020/12/27 06:07:15;;;;;;;14.90;13.70;;;-1.70;99.90;;;;;;5000155;28;20913;-78
2020/12/27 06:10:02;;;;;;;15.53;14.23;;;-1.70;99.90;;;;;;5006908;28;20463;-77
2020/12/27 06:13:00;;;;;;;15.33;14.03;;;-1.70;99.90;;;;;;4997218;28;20444;-78
2020/12/27 06:15:30;;;;;;;15.40;14.13;;;-1.80;99.90;;;;;;4978139;28;20491;-77
2020/12/27 06:18:16;;;;;;;15.50;14.30;;;-1.80;99.90;;;;;;5017190;28;21034;-76
2020/12/27 06:21:08;;;;;;;15.73;14.47;;;-1.80;99.90;;;;;;4999195;28;20456;-77
2020/12/27 06:23:39;;;;;;;16.30;14.83;;;-1.80;99.90;;;;;;4993897;28;20458;-77
2020/12/27 06:26:07;;;;;;;15.73;14.23;;;-1.80;99.90;;;;;;5005483;28;20471;-77
2020/12/27 06:28:36;;;;;;;14.83;13.70;;;-1.80;99.90;;;;;;5004444;28;20444;-76
2020/12/27 06:31:13;;;;;;;14.43;13.23;;;-1.80;99.90;;;;;;5001277;28;20470;-76
2020/12/27 06:33:52;;;;;;;15.60;14.00;;;-1.80;99.90;;;;;;5017088;28;20443;-76
2020/12/27 06:36:31;;;;;;;15.70;14.23;;;-1.80;99.90;;;;;;5000932;28;20498;-76
2020/12/27 06:38:58;;;;;;;15.60;14.20;;;-1.80;99.90;;;;;;5005371;28;20446;-77
2020/12/27 06:41:25;;;;;;;14.63;13.53;;;-1.80;99.90;;;;;;4999464;28;20439;-76
2020/12/27 06:44:39;;;;;;;14.83;13.63;;;-1.70;99.90;;;;;;5016720;28;20504;-76
2020/12/27 06:47:06;;;;;;;14.53;13.43;;;-1.70;99.90;;;;;;4998407;28;20443;-77
2020/12/27 06:49:42;;;;;;;14.43;13.27;;;-1.70;99.90;;;;;;5000461;28;20528;-76
2020/12/27 06:52:24;;;;;;;14.90;13.60;;;-1.70;99.90;;;;;;4998609;28;20462;-77
2020/12/27 06:55:36;;;;;;;15.37;13.97;;;-1.70;99.90;;;;;;5013385;28;20486;-77
2020/12/27 06:58:22;;;;;;;14.53;13.43;;;-1.70;99.90;;;;;;4998233;28;20439;-77
2020/12/27 07:01:10;;;;;;;14.47;13.27;;;-1.60;99.90;;;;;;5002424;28;20539;-77
2020/12/27 07:03:36;;;;;;;14.17;13.13;;;-1.60;99.90;;;;;;5009872;28;20481;-76
2020/12/27 07:06:16;;;;;;;14.90;13.80;;;-1.60;99.90;;;;;;5000650;28;20491;-77
2020/12/27 07:08:44;;;;;;;16.03;14.73;;;-1.60;99.90;;;;;;4997421;28;20454;-77
2020/12/27 07:11:11;;;;;;;16.57;15.17;;;-1.60;99.90;;;;;;4999752;28;20455;-77
2020/12/27 07:13:41;;;;;;;16.93;15.50;;;-1.60;99.90;;;;;;5002094;28;20542;-76
2020/12/27 07:16:11;;;;;;;17.33;15.83;;;-1.60;99.90;;;;;;5014119;28;20470;-77
2020/12/27 07:18:38;;;;;;;17.00;15.43;;;-1.60;99.90;;;;;;5016852;28;20447;-77
2020/12/27 07:21:11;;;;;;;16.53;15.03;;;-1.60;99.90;;;;;;5013442;28;20572;-77
2020/12/27 07:23:44;;;;;;;15.93;14.53;;;-1.60;99.90;;;;;;5014204;28;20438;-77
2020/12/27 07:26:11;;;;;;;15.50;14.30;;;-1.60;99.90;;;;;;5004163;28;20557;-77
2020/12/27 07:28:38;;;;;;;15.97;14.60;;;-1.60;99.90;;;;;;4993805;28;20487;-77
2020/12/27 07:31:06;;;;;;;16.13;14.63;;;-1.60;99.90;;;;;;4995744;28;20475;-77
2020/12/27 07:33:34;;;;;;;16.10;14.70;;;-1.60;99.90;;;;;;5014575;28;20464;-77
2020/12/27 07:36:03;;;;;;;16.57;15.00;;;-1.60;99.90;;;;;;4999175;28;20542;-77
2020/12/27 07:38:59;;;;;;;15.90;14.37;;;-1.50;99.90;;;;;;4998198;28;20486;-77
2020/12/27 07:41:27;;;;;;;15.10;13.90;;;-1.50;99.90;;;;;;4992647;28;20480;-77
2020/12/27 07:43:54;;;;;;;15.87;14.57;;;-1.40;99.90;;;;;;4997803;28;20447;-77
2020/12/27 07:46:22;;;;;;;15.43;14.23;;;-1.30;99.90;;;;;;5015806;28;20503;-77
2020/12/27 07:48:49;;;;;;;16.37;14.97;;;-1.30;99.90;;;;;;5013425;28;20443;-77
2020/12/27 07:51:16;;;;;;;16.07;14.77;;;-1.20;99.90;;;;;;4995472;28;20501;-77
2020/12/27 07:53:46;;;;;;;16.40;15.00;;;-1.10;99.90;;;;;;5018483;28;20467;-77
2020/12/27 07:56:17;;;;;;;15.73;14.37;;;-1.10;99.90;;;;;;4999644;28;20957;-76
2020/12/27 07:58:48;;;;;;;15.37;14.17;;;-1.00;99.90;;;;;;4995026;28;21015;-77
2020/12/27 08:01:25;;;;;;;15.97;14.67;;;-0.90;99.90;;;;;;4993553;28;20463;-76
2020/12/27 08:03:53;;;;;;;16.43;14.93;;;-0.90;99.90;;;;;;5014687;28;20924;-77
2020/12/27 08:06:19;;;;;;;16.30;14.70;;;-0.80;99.90;;;;;;4999375;28;20553;-76
2020/12/27 08:08:46;;;;;;;16.00;14.70;;;-0.70;99.90;;;;;;5000152;28;20628;-78
2020/12/27 08:11:20;;;;;;;15.53;14.13;;;-0.70;99.90;;;;;;4995618;28;20531;-77
2020/12/27 08:13:51;;;;;;;15.83;14.53;;;-0.60;99.90;;;;;;4998820;28;20533;-78
2020/12/27 08:16:17;;;;;;;15.40;14.10;;;-0.50;99.90;;;;;;5017757;28;20891;-78
2020/12/27 08:18:45;;;;;;;16.53;14.93;;;-0.40;99.90;;;;;;5019726;28;20541;-78
2020/12/27 08:21:11;;;;;;;15.67;14.43;;;-0.30;99.90;;;;;;5017282;28;20854;-78
2020/12/27 08:23:37;;;;;;;15.20;14.00;;;-0.30;99.90;;;;;;4996667;28;20999;-78
2020/12/27 08:26:03;;;;;;;15.27;14.07;;;-0.20;99.90;;;;;;4995736;28;20557;-79
2020/12/27 08:28:35;;;;;;;15.87;14.47;;;-0.20;99.90;;;;;;5018068;28;20423;-77
2020/12/27 08:31:01;;;;;;;15.73;14.43;;;-0.20;99.90;;;;;;4999416;28;20456;-77
2020/12/27 08:33:27;;;;;;;15.20;13.90;;;-0.10;99.90;;;;;;5000085;28;20510;-79
2020/12/27 08:35:56;;;;;;;15.10;13.83;;;0.00;99.90;;;;;;5012440;28;20491;-77
2020/12/27 08:38:35;;;;;;;14.87;13.73;;;0.10;99.90;;;;;;4994011;28;20439;-78
2020/12/27 08:41:18;;;;;;;15.30;13.90;;;0.10;99.90;;;;;;5017199;28;21022;-78
2020/12/27 08:44:19;;;;;;;14.60;13.50;;;0.20;99.90;;;;;;5007985;28;20522;-78
2020/12/27 08:46:48;;;;;;;15.83;14.43;;;0.30;99.90;;;;;;4993676;28;21256;-77
2020/12/27 08:49:25;;;;;;;14.53;13.33;;;0.40;99.90;;;;;;5011815;28;20442;-78
2020/12/27 08:52:02;;;;;;;15.13;13.93;;;0.40;99.90;;;;;;5008181;28;20478;-78
2020/12/27 08:54:28;;;;;;;14.17;13.00;;;0.50;99.90;;;;;;4997019;28;20498;-78
2020/12/27 08:56:55;;;;;;;12.90;11.80;;;0.50;99.90;;;;;;5024682;28;20501;-78
2020/12/27 08:59:21;;;;;;;14.23;13.07;;;0.60;99.90;;;;;;5000126;28;20539;-78
2020/12/27 09:01:50;;;;;;;14.23;13.03;;;0.60;99.90;;;;;;5006248;28;20466;-78
2020/12/27 09:04:20;;;;;;;10.97;10.07;;;0.70;99.90;;;;;;5000921;28;20486;-78
2020/12/27 09:06:57;;;;;;;13.27;12.07;;;0.70;99.90;;;;;;5016711;28;20530;-77
2020/12/27 09:09:23;;;;;;;11.77;10.67;;;0.80;99.90;;;;;;5016166;28;20443;-77
2020/12/27 09:11:50;;;;;;;11.87;10.87;;;0.80;99.90;;;;;;4998694;28;20461;-76
2020/12/27 09:14:30;;;;;;;11.30;10.30;;;0.80;99.90;;;;;;4997895;28;21104;-76
2020/12/27 09:17:00;;;;;;;12.20;11.00;;;0.80;99.90;;;;;;5000015;28;20542;-77
2020/12/27 09:19:28;;;;;;;11.57;10.50;;;0.80;99.90;;;;;;5000975;28;20494;-77
2020/12/27 09:21:55;;;;;;;12.23;11.03;;;0.90;99.90;;;;;;5007578;28;20897;-76
2020/12/27 09:24:21;;;;;;;12.00;10.80;;;1.00;99.90;;;;;;5015419;28;20936;-77
2020/12/27 09:26:48;;;;;;;10.53;9.80;;;1.00;99.90;;;;;;5014579;28;20953;-77
2020/12/27 09:29:16;;;;;;;10.90;9.90;;;1.00;99.90;;;;;;5013215;28;20524;-77
2020/12/27 09:31:43;;;;;;;11.63;10.53;;;1.10;99.90;;;;;;5014343;28;20431;-80
2020/12/27 09:34:10;;;;;;;12.27;11.20;;;1.10;99.90;;;;;;5002958;28;20474;-78
2020/12/27 09:36:36;;;;;;;13.50;12.33;;;1.10;99.90;;;;;;5004915;28;20475;-77
2020/12/27 09:39:05;;;;;;;14.50;13.30;;;1.20;99.90;;;;;;5004557;28;20439;-77
2020/12/27 09:41:36;;;;;;;13.30;12.40;;;1.20;99.90;;;;;;5014799;28;22469;-79
2020/12/27 09:44:03;;;;;;;14.97;13.77;;;1.20;99.90;;;;;;5015187;28;20511;-79
2020/12/27 09:46:40;;;;;;;16.60;14.90;;;1.30;99.90;;;;;;5018527;28;20790;-77
2020/12/27 09:49:21;;;;;;;17.73;16.10;;;1.40;99.90;;;;;;4999766;28;20489;-77
2020/12/27 09:52:01;;;;;;;14.70;13.47;;;1.50;99.90;;;;;;5006150;28;20434;-77
2020/12/27 09:54:30;;;;;;;15.00;13.80;;;1.60;99.90;;;;;;5012615;28;20999;-77
2020/12/27 09:56:57;;;;;;;15.27;14.07;;;1.70;99.90;;;;;;5006864;28;20485;-77
2020/12/27 09:59:23;;;;;;;15.30;14.17;;;1.70;99.90;;;;;;4998008;28;20602;-77
2020/12/27 10:01:49;;;;;;;14.07;12.77;;;1.80;99.90;;;;;;5000461;28;20529;-77
2020/12/27 10:04:15;;;;;;;13.20;12.17;;;1.90;99.90;;;;;;4999027;28;20564;-77
2020/12/27 10:06:42;;;;;;;12.33;11.17;;;1.90;99.90;;;;;;5015669;28;20473;-77
2020/12/27 10:09:08;;;;;;;11.10;10.10;;;1.90;99.90;;;;;;5018993;28;20528;-77
2020/12/27 10:11:35;;;;;;;10.67;9.87;;;1.90;99.90;;;;;;5015898;28;20562;-77
2020/12/27 10:14:01;;;;;;;10.67;9.73;;;1.90;99.90;;;;;;4996368;28;20543;-77
2020/12/27 10:16:28;;;;;;;13.33;12.13;;;2.00;99.90;;;;;;4994377;28;20469;-77
2020/12/27 10:18:54;;;;;;;13.10;12.00;;;1.90;99.90;;;;;;5016306;28;20506;-78
2020/12/27 10:21:20;;;;;;;13.37;12.37;;;1.90;99.90;;;;;;4998166;28;20566;-78
2020/12/27 10:23:46;;;;;;;13.60;12.50;;;1.80;99.90;;;;;;5015709;28;20449;-77
2020/12/27 10:26:13;;;;;;;13.63;12.33;;;1.90;99.90;;;;;;5015061;28;20576;-78
2020/12/27 10:28:40;;;;;;;13.40;12.30;;;1.80;99.90;;;;;;5001725;28;20534;-78
2020/12/27 10:31:09;;;;;;;13.20;12.20;;;1.80;99.90;;;;;;5025162;28;20588;-77
2020/12/27 10:33:36;;;;;;;13.70;12.60;;;1.90;99.90;;;;;;5017718;28;20444;-76
2020/12/27 10:36:02;;;;;;;14.67;13.50;;;1.90;99.90;;;;;;5004909;28;20926;-77
2020/12/27 10:38:28;;;;;;;14.30;13.10;;;1.80;99.90;;;;;;5011992;28;20577;-78
2020/12/27 10:40:54;;;;;;;13.43;12.43;;;1.80;99.90;;;;;;5013742;28;20519;-77
2020/12/27 10:43:21;;;;;;;13.53;12.40;;;1.80;99.90;;;;;;5005490;28;20473;-77
2020/12/27 10:45:48;;;;;;;12.50;11.60;;;1.90;99.90;;;;;;5013188;28;20493;-77
2020/12/27 10:48:14;;;;;;;13.30;12.23;;;1.80;99.90;;;;;;5005195;28;20480;-78
2020/12/27 10:50:41;;;;;;;13.27;12.17;;;1.80;99.90;;;;;;5008273;28;20538;-78
2020/12/27 10:53:07;;;;;;;14.17;12.97;;;1.80;99.90;;;;;;5003429;28;20440;-79
2020/12/27 10:55:34;;;;;;;13.37;12.47;;;1.80;99.90;;;;;;5003328;28;20608;-77
2020/12/27 10:58:00;;;;;;;12.73;11.63;;;1.80;99.90;;;;;;4998244;28;20533;-77
2020/12/27 11:00:26;;;;;;;13.53;12.53;;;1.90;99.90;;;;;;5013750;28;20511;-78
2020/12/27 11:02:53;;;;;;;13.73;12.63;;;1.90;99.90;;;;;;5003418;28;20526;-77
2020/12/27 11:05:19;;;;;;;12.90;11.90;;;1.90;99.90;;;;;;4997217;28;20547;-77
2020/12/27 11:07:46;;;;;;;13.00;12.00;;;2.00;99.90;;;;;;5016284;28;20513;-79
2020/12/27 11:10:12;;;;;;;13.50;12.50;;;2.00;99.90;;;;;;5023342;28;20459;-78
2020/12/27 11:12:38;;;;;;;13.57;12.50;;;2.00;99.90;;;;;;5011808;28;20530;-76
2020/12/27 11:15:04;;;;;;;14.03;12.83;;;2.00;99.90;;;;;;5011918;28;20546;-76
2020/12/27 11:17:30;;;;;;;12.93;11.93;;;2.10;99.90;;;;;;5014638;28;20448;-78
2020/12/27 11:19:58;;;;;;;13.83;12.67;;;2.10;99.90;;;;;;5012305;28;20488;-78
2020/12/27 11:22:24;;;;;;;12.90;11.80;;;2.20;99.90;;;;;;4999752;28;20471;-78
2020/12/27 11:24:50;;;;;;;11.77;10.87;;;2.20;99.90;;;;;;4994207;28;20491;-79
2020/12/27 11:27:16;;;;;;;12.20;11.30;;;2.30;99.90;;;;;;4994137;28;20551;-78
2020/12/27 11:29:43;;;;;;;13.03;11.97;;;2.20;99.90;;;;;;5001250;28;20502;-78
2020/12/27 11:32:09;;;;;;;12.37;11.37;;;2.20;99.90;;;;;;4996932;28;20550;-77
2020/12/27 11:34:35;;;;;;;12.57;11.43;;;2.20;99.90;;;;;;5013502;28;21022;-78
2020/12/27 11:37:02;;;;;;;12.40;11.40;;;2.20;99.90;;;;;;4986654;28;20532;-77
2020/12/27 11:39:28;;;;;;;12.87;11.70;;;2.20;99.90;;;;;;4996760;28;20505;-77
2020/12/27 11:41:55;;;;;;;12.83;11.77;;;2.10;99.90;;;;;;5011569;28;21078;-77
2020/12/27 11:44:21;;;;;;;13.20;12.20;;;2.00;99.90;;;;;;5009691;28;20961;-77
2020/12/27 11:46:47;;;;;;;14.20;13.10;;;2.00;99.90;;;;;;5013257;28;20468;-77
2020/12/27 11:49:13;;;;;;;13.60;12.60;;;2.00;99.90;;;;;;5002685;28;20445;-77
2020/12/27 11:51:40;;;;;;;13.70;12.60;;;2.00;99.90;;;;;;5017824;28;20477;-77
2020/12/27 11:54:07;;;;;;;13.50;12.40;;;2.10;99.90;;;;;;5016322;28;20471;-77
2020/12/27 11:56:35;;;;;;;13.47;12.37;;;2.10;99.90;;;;;;4997405;28;20550;-77
2020/12/27 11:59:01;;;;;;;13.33;12.33;;;2.10;99.90;;;;;;5011965;28;20469;-77
2020/12/27 12:01:28;;;;;;;13.30;12.20;;;2.10;99.90;;;;;;5010719;28;20559;-77
2020/12/27 12:03:54;;;;;;;13.57;12.37;;;2.10;99.90;;;;;;5011955;28;20522;-77
2020/12/27 12:06:23;;;;;;;12.77;11.87;;;2.10;99.90;;;;;;4993467;28;20563;-77
2020/12/27 12:08:50;;;;;;;12.70;11.80;;;2.20;99.90;;;;;;5019856;28;20464;-77
2020/12/27 12:11:17;;;;;;;13.53;12.50;;;2.30;99.90;;;;;;5012452;28;20437;-77
2020/12/27 12:13:43;;;;;;;13.60;12.50;;;2.20;99.90;;;;;;5016860;28;21175;-77
2020/12/27 12:16:09;;;;;;;13.63;12.43;;;2.30;99.90;;;;;;4994463;28;21121;-77
2020/12/27 12:18:36;;;;;;;13.27;12.27;;;2.30;99.90;;;;;;5012409;28;21015;-77
2020/12/27 12:21:02;;;;;;;13.63;12.63;;;2.30;99.90;;;;;;5019071;28;20566;-77
2020/12/27 12:23:28;;;;;;;13.13;12.07;;;2.40;99.90;;;;;;5017942;28;20464;-77
2020/12/27 12:25:55;;;;;;;12.13;11.23;;;2.30;99.90;;;;;;4998906;28;20558;-77
2020/12/27 12:28:22;;;;;;;12.07;11.17;;;2.40;99.90;;;;;;4994742;28;20448;-76
2020/12/27 12:30:48;;;;;;;12.70;11.60;;;2.40;99.90;;;;;;5012466;28;20851;-77
2020/12/27 12:33:14;;;;;;;12.23;11.33;;;2.40;99.90;;;;;;4998599;28;20542;-77
2020/12/27 12:35:42;;;;;;;12.13;11.23;;;2.40;99.90;;;;;;4990638;28;20506;-77
2020/12/27 12:38:08;;;;;;;12.30;11.30;;;2.50;99.90;;;;;;5018574;28;20474;-77
2020/12/27 12:40:35;;;;;;;12.50;11.50;;;2.50;99.90;;;;;;5013714;28;20846;-77
2020/12/27 12:43:01;;;;;;;12.17;11.20;;;2.40;99.90;;;;;;5011841;28;20467;-77
2020/12/27 12:45:28;;;;;;;12.27;11.20;;;2.30;99.90;;;;;;5044111;23;20588;-77
2020/12/27 12:47:54;;;;;;;13.27;12.23;;;2.40;99.90;;;;;;5028231;28;20482;-76
2020/12/27 12:50:22;;;;;;;12.87;11.80;;;2.40;99.90;;;;;;5008308;28;20441;-77
2020/12/27 12:52:48;;;;;;;12.47;11.47;;;2.40;99.90;;;;;;5025063;28;20447;-77